sensor_id;sensor_type;location;lat;lon;timestamp;temperature;humidity
19924;DHT22;10124;53.068;18.224;2022-10-16T00:01:44;13.90;99.90
19924;DHT22;10124;53.068;18.224;2022-10-16T00:04:13;13.80;99.90
19924;DHT22;10124;53.068;18.224;2022-10-16T00:06:41;14.10;99.90
19924;DHT22;10124;53.068;18.224;2022-10-16T00:09:08;13.60;99.90
19924;DHT22;10124;53.068;18.224;2022-10-16T00:11:38;13.60;99.90
19924;DHT22;10124;53.068;18.224;2022-10-16T00:14:13;13.60;99.90
19924;DHT22;10124;53.068;18.224;2022-10-16T00:16:42;13.50;99.90
19924;DHT22;10124;53.068;18.224;2022-10-16T00:19:11;13.40;99.90
19924;DHT22;10124;53.068;18.224;2022-10-16T00:21:39;13.40;1.00
19924;DHT22;10124;53.068;18.224;2022-10-16T00:24:09;13.10;1.00
19924;DHT22;10124;53.068;18.224;2022-10-16T00:26:38;13.30;1.00
19924;DHT22;10124;53.068;18.224;2022-10-16T00:29:07;13.30;1.00
19924;DHT22;10124;53.068;18.224;2022-10-16T00:31:35;13.20;1.00
19924;DHT22;10124;53.068;18.224;2022-10-16T00:34:03;13.20;99.90
19924;DHT22;10124;53.068;18.224;2022-10-16T00:36:31;13.20;99.90
19924;DHT22;10124;53.068;18.224;2022-10-16T00:38:59;13.10;1.00
19924;DHT22;10124;53.068;18.224;2022-10-16T00:41:29;13.10;1.00
19924;DHT22;10124;53.068;18.224;2022-10-16T00:44:01;13.10;1.00
19924;DHT22;10124;53.068;18.224;2022-10-16T00:46:38;13.20;1.00
19924;DHT22;10124;53.068;18.224;2022-10-16T00:49:15;14.00;1.00
19924;DHT22;10124;53.068;18.224;2022-10-16T00:51:47;14.40;1.00
19924;DHT22;10124;53.068;18.224;2022-10-16T00:54:19;13.20;1.00
19924;DHT22;10124;53.068;18.224;2022-10-16T00:56:48;13.00;1.00
19924;DHT22;10124;53.068;18.224;2022-10-16T00:59:31;13.10;1.00
19924;DHT22;10124;53.068;18.224;2022-10-16T01:01:59;13.10;1.00
19924;DHT22;10124;53.068;18.224;2022-10-16T01:04:32;13.10;99.90
19924;DHT22;10124;53.068;18.224;2022-10-16T01:07:30;13.10;1.00
19924;DHT22;10124;53.068;18.224;2022-10-16T01:12:58;13.20;1.00
19924;DHT22;10124;53.068;18.224;2022-10-16T01:18:16;13.30;99.90
19924;DHT22;10124;53.068;18.224;2022-10-16T01:20:53;13.30;1.00
19924;DHT22;10124;53.068;18.224;2022-10-16T01:29:25;14.40;1.00
19924;DHT22;10124;53.068;18.224;2022-10-16T01:31:36;13.40;99.90
19924;DHT22;10124;53.068;18.224;2022-10-16T01:34:11;14.50;99.90
19924;DHT22;10124;53.068;18.224;2022-10-16T01:37:09;14.30;99.90
19924;DHT22;10124;53.068;18.224;2022-10-16T01:39:40;13.30;1.00
19924;DHT22;10124;53.068;18.224;2022-10-16T01:42:17;13.70;1.00
19924;DHT22;10124;53.068;18.224;2022-10-16T01:44:46;13.40;99.90
19924;DHT22;10124;53.068;18.224;2022-10-16T01:47:15;13.40;99.90
19924;DHT22;10124;53.068;18.224;2022-10-16T01:49:45;13.40;99.90
19924;DHT22;10124;53.068;18.224;2022-10-16T01:52:17;14.00;99.90
19924;DHT22;10124;53.068;18.224;2022-10-16T01:54:49;13.40;99.90
19924;DHT22;10124;53.068;18.224;2022-10-16T01:57:20;14.00;99.90
19924;DHT22;10124;53.068;18.224;2022-10-16T01:59:53;13.40;99.90
19924;DHT22;10124;53.068;18.224;2022-10-16T02:02:22;13.40;99.90
19924;DHT22;10124;53.068;18.224;2022-10-16T02:05:37;13.40;99.90
19924;DHT22;10124;53.068;18.224;2022-10-16T02:07:55;13.40;99.90
19924;DHT22;10124;53.068;18.224;2022-10-16T02:10:26;13.90;99.90
19924;DHT22;10124;53.068;18.224;2022-10-16T02:13:15;13.20;99.90
19924;DHT22;10124;53.068;18.224;2022-10-16T02:15:44;13.10;1.00
19924;DHT22;10124;53.068;18.224;2022-10-16T02:18:11;13.20;95.70
19924;DHT22;10124;53.068;18.224;2022-10-16T02:20:57;12.90;99.90
19924;DHT22;10124;53.068;18.224;2022-10-16T02:23:48;12.70;1.00
19924;DHT22;10124;53.068;18.224;2022-10-16T02:27:06;12.70;99.90
19924;DHT22;10124;53.068;18.224;2022-10-16T02:29:16;12.70;99.90
19924;DHT22;10124;53.068;18.224;2022-10-16T02:31:50;12.80;99.90
19924;DHT22;10124;53.068;18.224;2022-10-16T02:34:21;13.30;99.90
19924;DHT22;10124;53.068;18.224;2022-10-16T02:36:52;12.60;1.00
19924;DHT22;10124;53.068;18.224;2022-10-16T02:39:20;12.60;1.00
19924;DHT22;10124;53.068;18.224;2022-10-16T02:41:48;12.60;1.00
19924;DHT22;10124;53.068;18.224;2022-10-16T02:44:16;12.60;1.00
19924;DHT22;10124;53.068;18.224;2022-10-16T02:46:43;13.50;1.00
19924;DHT22;10124;53.068;18.224;2022-10-16T02:49:11;13.70;23.20
19924;DHT22;10124;53.068;18.224;2022-10-16T02:51:38;14.50;77.40
19924;DHT22;10124;53.068;18.224;2022-10-16T02:54:06;12.90;28.50
19924;DHT22;10124;53.068;18.224;2022-10-16T02:56:33;13.10;26.50
19924;DHT22;10124;53.068;18.224;2022-10-16T02:59:01;14.10;39.40
19924;DHT22;10124;53.068;18.224;2022-10-16T03:01:29;13.10;19.10
19924;DHT22;10124;53.068;18.224;2022-10-16T03:03:56;13.20;1.00
19924;DHT22;10124;53.068;18.224;2022-10-16T03:06:23;13.20;1.00
19924;DHT22;10124;53.068;18.224;2022-10-16T03:08:51;13.30;1.00
19924;DHT22;10124;53.068;18.224;2022-10-16T03:11:18;14.90;1.00
19924;DHT22;10124;53.068;18.224;2022-10-16T03:13:46;14.10;1.00
19924;DHT22;10124;53.068;18.224;2022-10-16T03:16:13;13.90;1.00
19924;DHT22;10124;53.068;18.224;2022-10-16T03:18:41;14.80;1.00
19924;DHT22;10124;53.068;18.224;2022-10-16T03:21:08;13.90;1.00
19924;DHT22;10124;53.068;18.224;2022-10-16T03:23:36;13.30;1.00
19924;DHT22;10124;53.068;18.224;2022-10-16T03:26:04;13.30;1.00
19924;DHT22;10124;53.068;18.224;2022-10-16T03:28:32;13.30;1.00
19924;DHT22;10124;53.068;18.224;2022-10-16T03:30:59;13.30;1.00
19924;DHT22;10124;53.068;18.224;2022-10-16T03:33:27;13.40;1.00
19924;DHT22;10124;53.068;18.224;2022-10-16T03:35:58;13.50;1.00
19924;DHT22;10124;53.068;18.224;2022-10-16T03:38:26;13.40;1.00
19924;DHT22;10124;53.068;18.224;2022-10-16T03:40:53;13.40;1.00
19924;DHT22;10124;53.068;18.224;2022-10-16T03:43:21;13.40;1.00
19924;DHT22;10124;53.068;18.224;2022-10-16T03:45:50;13.40;1.00
19924;DHT22;10124;53.068;18.224;2022-10-16T03:48:21;13.40;1.00
19924;DHT22;10124;53.068;18.224;2022-10-16T03:50:48;13.40;1.00
19924;DHT22;10124;53.068;18.224;2022-10-16T03:53:16;13.50;1.00
19924;DHT22;10124;53.068;18.224;2022-10-16T03:55:44;13.50;1.00
19924;DHT22;10124;53.068;18.224;2022-10-16T03:58:12;13.50;1.00
19924;DHT22;10124;53.068;18.224;2022-10-16T04:00:41;14.30;1.00
19924;DHT22;10124;53.068;18.224;2022-10-16T04:03:09;14.50;1.00
19924;DHT22;10124;53.068;18.224;2022-10-16T04:05:37;13.70;1.00
19924;DHT22;10124;53.068;18.224;2022-10-16T04:08:05;13.60;1.00
19924;DHT22;10124;53.068;18.224;2022-10-16T04:10:32;13.60;1.00
19924;DHT22;10124;53.068;18.224;2022-10-16T04:13:00;13.60;1.00
19924;DHT22;10124;53.068;18.224;2022-10-16T04:15:28;13.50;1.00
19924;DHT22;10124;53.068;18.224;2022-10-16T04:17:55;15.10;1.00
19924;DHT22;10124;53.068;18.224;2022-10-16T04:20:23;13.50;1.00
19924;DHT22;10124;53.068;18.224;2022-10-16T04:22:50;13.60;1.00
19924;DHT22;10124;53.068;18.224;2022-10-16T04:25:18;15.00;1.00
19924;DHT22;10124;53.068;18.224;2022-10-16T04:27:45;13.50;1.00
19924;DHT22;10124;53.068;18.224;2022-10-16T04:30:15;13.40;1.00
19924;DHT22;10124;53.068;18.224;2022-10-16T04:32:42;13.40;1.00
19924;DHT22;10124;53.068;18.224;2022-10-16T04:35:10;13.40;1.00
19924;DHT22;10124;53.068;18.224;2022-10-16T04:37:37;13.40;1.00
19924;DHT22;10124;53.068;18.224;2022-10-16T04:40:05;13.40;1.00
19924;DHT22;10124;53.068;18.224;2022-10-16T04:42:34;13.50;1.00
19924;DHT22;10124;53.068;18.224;2022-10-16T04:45:02;13.90;1.00
19924;DHT22;10124;53.068;18.224;2022-10-16T04:47:30;13.50;1.00
19924;DHT22;10124;53.068;18.224;2022-10-16T04:49:58;13.70;1.00
19924;DHT22;10124;53.068;18.224;2022-10-16T04:52:29;13.50;1.00
19924;DHT22;10124;53.068;18.224;2022-10-16T04:54:58;14.20;1.00
19924;DHT22;10124;53.068;18.224;2022-10-16T04:57:29;13.60;1.00
19924;DHT22;10124;53.068;18.224;2022-10-16T04:59:57;13.60;1.00
19924;DHT22;10124;53.068;18.224;2022-10-16T05:02:25;14.80;1.00
19924;DHT22;10124;53.068;18.224;2022-10-16T05:04:52;13.70;1.00
19924;DHT22;10124;53.068;18.224;2022-10-16T05:07:20;13.70;1.00
19924;DHT22;10124;53.068;18.224;2022-10-16T05:09:47;13.70;1.00
19924;DHT22;10124;53.068;18.224;2022-10-16T05:12:15;15.50;1.00
19924;DHT22;10124;53.068;18.224;2022-10-16T05:14:42;15.10;1.00
19924;DHT22;10124;53.068;18.224;2022-10-16T05:17:10;13.80;1.00
19924;DHT22;10124;53.068;18.224;2022-10-16T05:19:37;13.80;1.00
19924;DHT22;10124;53.068;18.224;2022-10-16T05:22:05;13.80;1.00
19924;DHT22;10124;53.068;18.224;2022-10-16T05:24:33;13.80;1.00
19924;DHT22;10124;53.068;18.224;2022-10-16T05:27:02;13.90;1.00
19924;DHT22;10124;53.068;18.224;2022-10-16T05:29:29;13.80;1.00
19924;DHT22;10124;53.068;18.224;2022-10-16T05:31:58;13.80;1.00
19924;DHT22;10124;53.068;18.224;2022-10-16T05:34:25;13.80;1.00
19924;DHT22;10124;53.068;18.224;2022-10-16T05:36:55;13.90;1.00
19924;DHT22;10124;53.068;18.224;2022-10-16T05:39:24;13.70;1.00
19924;DHT22;10124;53.068;18.224;2022-10-16T05:41:53;13.60;1.00
19924;DHT22;10124;53.068;18.224;2022-10-16T05:44:20;13.70;1.00
19924;DHT22;10124;53.068;18.224;2022-10-16T05:46:48;13.60;91.30
19924;DHT22;10124;53.068;18.224;2022-10-16T05:49:16;13.60;99.90
19924;DHT22;10124;53.068;18.224;2022-10-16T05:51:44;13.60;99.90
19924;DHT22;10124;53.068;18.224;2022-10-16T05:54:11;13.70;99.90
19924;DHT22;10124;53.068;18.224;2022-10-16T05:56:39;13.70;99.90
19924;DHT22;10124;53.068;18.224;2022-10-16T05:59:07;13.70;99.90
19924;DHT22;10124;53.068;18.224;2022-10-16T06:01:34;13.60;99.90
19924;DHT22;10124;53.068;18.224;2022-10-16T06:04:02;13.60;99.90
19924;DHT22;10124;53.068;18.224;2022-10-16T06:06:30;13.70;99.90
19924;DHT22;10124;53.068;18.224;2022-10-16T06:08:58;13.70;99.90
19924;DHT22;10124;53.068;18.224;2022-10-16T06:11:29;13.80;99.90
19924;DHT22;10124;53.068;18.224;2022-10-16T06:13:59;13.90;99.90
19924;DHT22;10124;53.068;18.224;2022-10-16T06:16:30;13.80;99.90
19924;DHT22;10124;53.068;18.224;2022-10-16T06:18:57;14.10;99.90
19924;DHT22;10124;53.068;18.224;2022-10-16T06:21:28;14.20;99.90
19924;DHT22;10124;53.068;18.224;2022-10-16T06:23:58;14.30;99.90
19924;DHT22;10124;53.068;18.224;2022-10-16T06:26:29;14.40;99.90
19924;DHT22;10124;53.068;18.224;2022-10-16T06:28:58;14.50;53.90
19924;DHT22;10124;53.068;18.224;2022-10-16T06:31:28;14.60;1.00
19924;DHT22;10124;53.068;18.224;2022-10-16T06:33:58;14.70;1.00
19924;DHT22;10124;53.068;18.224;2022-10-16T06:36:26;14.80;1.00
19924;DHT22;10124;53.068;18.224;2022-10-16T06:38:54;15.60;1.00
19924;DHT22;10124;53.068;18.224;2022-10-16T06:41:22;14.70;1.00
19924;DHT22;10124;53.068;18.224;2022-10-16T06:43:51;15.70;1.00
19924;DHT22;10124;53.068;18.224;2022-10-16T06:46:22;14.70;1.00
19924;DHT22;10124;53.068;18.224;2022-10-16T06:48:50;14.80;1.00
19924;DHT22;10124;53.068;18.224;2022-10-16T06:51:21;16.10;1.00
19924;DHT22;10124;53.068;18.224;2022-10-16T06:53:54;14.80;1.00
19924;DHT22;10124;53.068;18.224;2022-10-16T06:56:33;14.80;1.00
19924;DHT22;10124;53.068;18.224;2022-10-16T06:59:01;15.10;1.00
19924;DHT22;10124;53.068;18.224;2022-10-16T07:01:29;15.00;1.00
19924;DHT22;10124;53.068;18.224;2022-10-16T07:03:57;15.10;1.00
19924;DHT22;10124;53.068;18.224;2022-10-16T07:06:26;15.20;1.00
19924;DHT22;10124;53.068;18.224;2022-10-16T07:08:54;15.10;1.00
19924;DHT22;10124;53.068;18.224;2022-10-16T07:11:23;15.20;1.00
19924;DHT22;10124;53.068;18.224;2022-10-16T07:13:52;15.20;1.00
19924;DHT22;10124;53.068;18.224;2022-10-16T07:16:27;16.00;1.00
19924;DHT22;10124;53.068;18.224;2022-10-16T07:18:57;15.40;1.00
19924;DHT22;10124;53.068;18.224;2022-10-16T07:21:30;15.50;1.00
19924;DHT22;10124;53.068;18.224;2022-10-16T07:24:05;15.60;99.90
19924;DHT22;10124;53.068;18.224;2022-10-16T07:26:35;15.70;99.90
19924;DHT22;10124;53.068;18.224;2022-10-16T07:29:02;15.80;99.90
19924;DHT22;10124;53.068;18.224;2022-10-16T07:31:31;15.90;99.90
19924;DHT22;10124;53.068;18.224;2022-10-16T07:34:00;17.30;99.90
19924;DHT22;10124;53.068;18.224;2022-10-16T07:36:28;17.40;99.90
19924;DHT22;10124;53.068;18.224;2022-10-16T07:38:56;16.30;99.90
19924;DHT22;10124;53.068;18.224;2022-10-16T07:41:27;16.40;99.90
19924;DHT22;10124;53.068;18.224;2022-10-16T07:43:56;16.50;99.90
19924;DHT22;10124;53.068;18.224;2022-10-16T07:46:28;16.50;99.90
19924;DHT22;10124;53.068;18.224;2022-10-16T07:48:57;16.70;99.90
19924;DHT22;10124;53.068;18.224;2022-10-16T07:51:25;16.80;99.90
19924;DHT22;10124;53.068;18.224;2022-10-16T07:53:53;16.90;99.90
19924;DHT22;10124;53.068;18.224;2022-10-16T07:56:22;16.90;99.90
19924;DHT22;10124;53.068;18.224;2022-10-16T07:58:50;17.10;99.90
19924;DHT22;10124;53.068;18.224;2022-10-16T08:01:19;17.10;97.40
19924;DHT22;10124;53.068;18.224;2022-10-16T08:03:49;17.10;91.60
19924;DHT22;10124;53.068;18.224;2022-10-16T08:06:20;17.20;53.90
19924;DHT22;10124;53.068;18.224;2022-10-16T08:08:55;17.30;31.10
19924;DHT22;10124;53.068;18.224;2022-10-16T08:11:23;17.30;29.30
19924;DHT22;10124;53.068;18.224;2022-10-16T08:13:51;17.20;26.10
19924;DHT22;10124;53.068;18.224;2022-10-16T08:16:19;17.40;3.70
19924;DHT22;10124;53.068;18.224;2022-10-16T08:18:47;17.50;1.00
19924;DHT22;10124;53.068;18.224;2022-10-16T08:21:17;17.70;1.00
19924;DHT22;10124;53.068;18.224;2022-10-16T08:23:48;17.70;1.00
19924;DHT22;10124;53.068;18.224;2022-10-16T08:26:25;17.90;1.00
19924;DHT22;10124;53.068;18.224;2022-10-16T08:28:55;18.00;1.00
19924;DHT22;10124;53.068;18.224;2022-10-16T08:31:26;18.10;99.90
19924;DHT22;10124;53.068;18.224;2022-10-16T08:33:54;18.30;1.00
19924;DHT22;10124;53.068;18.224;2022-10-16T08:36:22;18.40;99.90
19924;DHT22;10124;53.068;18.224;2022-10-16T08:38:50;18.60;95.60
19924;DHT22;10124;53.068;18.224;2022-10-16T08:47:17;20.10;1.00
19924;DHT22;10124;53.068;18.224;2022-10-16T08:50:10;20.80;1.00
19924;DHT22;10124;53.068;18.224;2022-10-16T08:52:42;21.10;1.00
19924;DHT22;10124;53.068;18.224;2022-10-16T08:55:42;21.20;1.00
19924;DHT22;10124;53.068;18.224;2022-10-16T08:58:16;21.80;1.00
19924;DHT22;10124;53.068;18.224;2022-10-16T09:00:53;22.20;1.00
19924;DHT22;10124;53.068;18.224;2022-10-16T09:09:45;19.90;1.00
19924;DHT22;10124;53.068;18.224;2022-10-16T09:15:13;19.50;1.00
19924;DHT22;10124;53.068;18.224;2022-10-16T09:17:43;19.30;1.00
19924;DHT22;10124;53.068;18.224;2022-10-16T09:20:38;20.50;1.00
19924;DHT22;10124;53.068;18.224;2022-10-16T09:23:13;19.40;1.00
19924;DHT22;10124;53.068;18.224;2022-10-16T09:25:45;19.60;1.00
19924;DHT22;10124;53.068;18.224;2022-10-16T09:28:16;19.60;1.00
19924;DHT22;10124;53.068;18.224;2022-10-16T09:30:45;19.50;1.00
19924;DHT22;10124;53.068;18.224;2022-10-16T09:33:13;19.40;1.00
19924;DHT22;10124;53.068;18.224;2022-10-16T09:35:48;20.20;1.00
19924;DHT22;10124;53.068;18.224;2022-10-16T09:38:27;19.40;1.00
19924;DHT22;10124;53.068;18.224;2022-10-16T09:40:57;19.40;1.00
19924;DHT22;10124;53.068;18.224;2022-10-16T09:43:40;19.30;1.00
19924;DHT22;10124;53.068;18.224;2022-10-16T09:46:22;19.30;1.00
19924;DHT22;10124;53.068;18.224;2022-10-16T09:48:55;19.20;1.00
19924;DHT22;10124;53.068;18.224;2022-10-16T09:51:27;19.20;1.00
19924;DHT22;10124;53.068;18.224;2022-10-16T09:56:37;19.60;1.00
19924;DHT22;10124;53.068;18.224;2022-10-16T09:59:16;20.20;1.00
19924;DHT22;10124;53.068;18.224;2022-10-16T10:01:45;18.70;1.00
19924;DHT22;10124;53.068;18.224;2022-10-16T10:04:13;19.50;1.00
19924;DHT22;10124;53.068;18.224;2022-10-16T10:06:54;19.60;1.00
19924;DHT22;10124;53.068;18.224;2022-10-16T10:09:23;19.70;1.00
19924;DHT22;10124;53.068;18.224;2022-10-16T10:11:59;20.90;1.00
19924;DHT22;10124;53.068;18.224;2022-10-16T10:14:43;20.10;1.00
19924;DHT22;10124;53.068;18.224;2022-10-16T10:17:16;20.20;1.00
19924;DHT22;10124;53.068;18.224;2022-10-16T10:20:21;20.30;1.00
19924;DHT22;10124;53.068;18.224;2022-10-16T10:22:49;20.30;1.00
19924;DHT22;10124;53.068;18.224;2022-10-16T10:30:55;20.50;1.00
19924;DHT22;10124;53.068;18.224;2022-10-16T10:36:25;20.20;1.00
19924;DHT22;10124;53.068;18.224;2022-10-16T10:47:29;19.60;1.00
19924;DHT22;10124;53.068;18.224;2022-10-16T10:52:59;19.50;1.00
19924;DHT22;10124;53.068;18.224;2022-10-16T10:58:48;19.90;1.00
19924;DHT22;10124;53.068;18.224;2022-10-16T11:07:21;20.00;1.00
19924;DHT22;10124;53.068;18.224;2022-10-16T11:09:54;20.10;1.00
19924;DHT22;10124;53.068;18.224;2022-10-16T11:12:30;20.20;1.00
19924;DHT22;10124;53.068;18.224;2022-10-16T11:15:28;20.90;1.00
19924;DHT22;10124;53.068;18.224;2022-10-16T11:18:06;20.40;1.00
19924;DHT22;10124;53.068;18.224;2022-10-16T11:20:42;21.90;1.00
19924;DHT22;10124;53.068;18.224;2022-10-16T11:23:42;19.90;1.00
19924;DHT22;10124;53.068;18.224;2022-10-16T11:26:17;19.80;1.00
19924;DHT22;10124;53.068;18.224;2022-10-16T11:28:53;21.20;1.00
19924;DHT22;10124;53.068;18.224;2022-10-16T11:31:40;19.90;1.00
19924;DHT22;10124;53.068;18.224;2022-10-16T11:37:41;20.70;1.00
19924;DHT22;10124;53.068;18.224;2022-10-16T11:40:30;20.80;1.00
19924;DHT22;10124;53.068;18.224;2022-10-16T11:43:41;20.60;1.00
19924;DHT22;10124;53.068;18.224;2022-10-16T11:46:17;19.20;1.00
19924;DHT22;10124;53.068;18.224;2022-10-16T11:49:08;20.10;1.00
19924;DHT22;10124;53.068;18.224;2022-10-16T11:51:50;19.90;1.00
19924;DHT22;10124;53.068;18.224;2022-10-16T11:54:42;19.80;1.00
19924;DHT22;10124;53.068;18.224;2022-10-16T11:57:20;19.80;1.00
19924;DHT22;10124;53.068;18.224;2022-10-16T11:59:54;19.80;1.00
19924;DHT22;10124;53.068;18.224;2022-10-16T12:05:05;20.70;1.00
19924;DHT22;10124;53.068;18.224;2022-10-16T12:07:39;20.30;1.00
19924;DHT22;10124;53.068;18.224;2022-10-16T12:10:17;20.20;1.00
19924;DHT22;10124;53.068;18.224;2022-10-16T12:12:52;20.50;1.00
19924;DHT22;10124;53.068;18.224;2022-10-16T12:15:28;20.10;1.00
19924;DHT22;10124;53.068;18.224;2022-10-16T12:18:24;20.00;1.00
19924;DHT22;10124;53.068;18.224;2022-10-16T12:20:59;19.90;1.00
19924;DHT22;10124;53.068;18.224;2022-10-16T12:23:47;19.80;1.00
19924;DHT22;10124;53.068;18.224;2022-10-16T12:26:33;21.30;1.00
19924;DHT22;10124;53.068;18.224;2022-10-16T12:31:46;19.70;1.00
19924;DHT22;10124;53.068;18.224;2022-10-16T12:34:39;19.70;1.00
19924;DHT22;10124;53.068;18.224;2022-10-16T12:37:20;19.60;1.00
19924;DHT22;10124;53.068;18.224;2022-10-16T12:39:49;19.60;1.00
19924;DHT22;10124;53.068;18.224;2022-10-16T12:44:55;19.50;1.00
19924;DHT22;10124;53.068;18.224;2022-10-16T12:50:00;19.30;1.00
19924;DHT22;10124;53.068;18.224;2022-10-16T12:52:37;19.00;1.00
19924;DHT22;10124;53.068;18.224;2022-10-16T12:55:15;19.20;1.00
19924;DHT22;10124;53.068;18.224;2022-10-16T12:58:08;20.00;1.00
19924;DHT22;10124;53.068;18.224;2022-10-16T13:00:56;19.10;1.00
19924;DHT22;10124;53.068;18.224;2022-10-16T13:06:14;19.10;1.00
19924;DHT22;10124;53.068;18.224;2022-10-16T13:15:09;19.30;1.00
19924;DHT22;10124;53.068;18.224;2022-10-16T13:18:07;19.30;1.00
19924;DHT22;10124;53.068;18.224;2022-10-16T13:20:53;19.30;1.00
19924;DHT22;10124;53.068;18.224;2022-10-16T13:23:32;19.30;1.00
19924;DHT22;10124;53.068;18.224;2022-10-16T13:26:20;19.30;1.00
19924;DHT22;10124;53.068;18.224;2022-10-16T13:28:49;19.30;1.00
19924;DHT22;10124;53.068;18.224;2022-10-16T13:31:20;19.70;1.00
19924;DHT22;10124;53.068;18.224;2022-10-16T13:33:51;19.50;1.00
19924;DHT22;10124;53.068;18.224;2022-10-16T13:36:24;19.70;1.00
19924;DHT22;10124;53.068;18.224;2022-10-16T13:39:15;19.70;1.00
19924;DHT22;10124;53.068;18.224;2022-10-16T13:41:45;21.40;1.00
19924;DHT22;10124;53.068;18.224;2022-10-16T13:44:19;20.10;1.00
19924;DHT22;10124;53.068;18.224;2022-10-16T13:46:47;20.50;1.00
19924;DHT22;10124;53.068;18.224;2022-10-16T13:49:25;21.40;1.00
19924;DHT22;10124;53.068;18.224;2022-10-16T13:51:57;20.90;1.00
19924;DHT22;10124;53.068;18.224;2022-10-16T13:54:27;20.80;1.00
19924;DHT22;10124;53.068;18.224;2022-10-16T13:56:55;21.90;1.00
19924;DHT22;10124;53.068;18.224;2022-10-16T13:59:36;21.40;1.00
19924;DHT22;10124;53.068;18.224;2022-10-16T14:02:26;20.30;1.00
19924;DHT22;10124;53.068;18.224;2022-10-16T14:04:57;20.20;1.00
19924;DHT22;10124;53.068;18.224;2022-10-16T14:07:27;20.10;1.00
19924;DHT22;10124;53.068;18.224;2022-10-16T14:09:56;21.10;1.00
19924;DHT22;10124;53.068;18.224;2022-10-16T14:12:27;21.70;1.00
19924;DHT22;10124;53.068;18.224;2022-10-16T14:14:55;20.90;1.00
19924;DHT22;10124;53.068;18.224;2022-10-16T14:17:30;20.20;1.00
19924;DHT22;10124;53.068;18.224;2022-10-16T14:20:00;20.20;1.00
19924;DHT22;10124;53.068;18.224;2022-10-16T14:22:39;22.40;1.00
19924;DHT22;10124;53.068;18.224;2022-10-16T14:28:23;20.70;1.00
19924;DHT22;10124;53.068;18.224;2022-10-16T14:30:56;19.80;1.00
19924;DHT22;10124;53.068;18.224;2022-10-16T14:33:32;19.60;1.00
19924;DHT22;10124;53.068;18.224;2022-10-16T14:36:06;19.60;1.00
19924;DHT22;10124;53.068;18.224;2022-10-16T14:38:40;19.50;1.00
19924;DHT22;10124;53.068;18.224;2022-10-16T14:41:08;19.50;1.00
19924;DHT22;10124;53.068;18.224;2022-10-16T14:43:43;19.40;1.00
19924;DHT22;10124;53.068;18.224;2022-10-16T14:46:20;19.50;1.00
19924;DHT22;10124;53.068;18.224;2022-10-16T14:48:50;19.50;1.00
19924;DHT22;10124;53.068;18.224;2022-10-16T14:51:19;19.80;1.00
19924;DHT22;10124;53.068;18.224;2022-10-16T14:53:47;21.10;1.00
19924;DHT22;10124;53.068;18.224;2022-10-16T14:56:18;19.40;1.00
19924;DHT22;10124;53.068;18.224;2022-10-16T14:58:47;19.10;1.00
19924;DHT22;10124;53.068;18.224;2022-10-16T15:01:15;19.60;1.00
19924;DHT22;10124;53.068;18.224;2022-10-16T15:03:43;18.90;1.00
19924;DHT22;10124;53.068;18.224;2022-10-16T15:06:12;19.40;1.00
19924;DHT22;10124;53.068;18.224;2022-10-16T15:08:41;19.90;1.00
19924;DHT22;10124;53.068;18.224;2022-10-16T15:11:18;18.80;1.00
19924;DHT22;10124;53.068;18.224;2022-10-16T15:13:46;18.70;1.00
19924;DHT22;10124;53.068;18.224;2022-10-16T15:16:15;19.90;1.00
19924;DHT22;10124;53.068;18.224;2022-10-16T15:18:43;19.60;7.70
19924;DHT22;10124;53.068;18.224;2022-10-16T15:21:23;18.20;22.00
19924;DHT22;10124;53.068;18.224;2022-10-16T15:23:51;19.10;30.00
19924;DHT22;10124;53.068;18.224;2022-10-16T15:26:19;17.90;91.40
19924;DHT22;10124;53.068;18.224;2022-10-16T15:28:46;18.20;82.90
19924;DHT22;10124;53.068;18.224;2022-10-16T15:31:14;17.60;95.90
19924;DHT22;10124;53.068;18.224;2022-10-16T15:33:42;19.40;99.90
19924;DHT22;10124;53.068;18.224;2022-10-16T15:36:10;18.50;99.90
19924;DHT22;10124;53.068;18.224;2022-10-16T15:38:38;17.20;99.90
19924;DHT22;10124;53.068;18.224;2022-10-16T15:41:05;17.10;99.90
19924;DHT22;10124;53.068;18.224;2022-10-16T15:43:33;15.30;99.90
19924;DHT22;10124;53.068;18.224;2022-10-16T15:46:06;17.10;99.90
19924;DHT22;10124;53.068;18.224;2022-10-16T15:48:36;17.90;99.90
19924;DHT22;10124;53.068;18.224;2022-10-16T15:51:06;16.50;1.00
19924;DHT22;10124;53.068;18.224;2022-10-16T15:53:34;16.50;99.90
19924;DHT22;10124;53.068;18.224;2022-10-16T15:56:03;16.60;1.00
19924;DHT22;10124;53.068;18.224;2022-10-16T15:58:31;16.20;1.00
19924;DHT22;10124;53.068;18.224;2022-10-16T16:01:00;18.20;1.00
19924;DHT22;10124;53.068;18.224;2022-10-16T16:03:30;16.00;1.00
19924;DHT22;10124;53.068;18.224;2022-10-16T16:05:58;17.50;81.10
19924;DHT22;10124;53.068;18.224;2022-10-16T16:08:25;17.50;99.90
19924;DHT22;10124;53.068;18.224;2022-10-16T16:13:33;15.50;1.00
19924;DHT22;10124;53.068;18.224;2022-10-16T16:16:01;17.00;1.00
19924;DHT22;10124;53.068;18.224;2022-10-16T16:18:28;15.40;1.00
19924;DHT22;10124;53.068;18.224;2022-10-16T16:20:57;16.50;1.00
19924;DHT22;10124;53.068;18.224;2022-10-16T16:23:24;15.10;1.00
19924;DHT22;10124;53.068;18.224;2022-10-16T16:28:47;15.00;99.90
19924;DHT22;10124;53.068;18.224;2022-10-16T16:31:15;14.90;99.90
19924;DHT22;10124;53.068;18.224;2022-10-16T16:33:42;14.60;1.00
19924;DHT22;10124;53.068;18.224;2022-10-16T16:36:10;16.90;1.00
19924;DHT22;10124;53.068;18.224;2022-10-16T16:38:41;16.30;1.00
19924;DHT22;10124;53.068;18.224;2022-10-16T16:41:18;14.80;1.00
19924;DHT22;10124;53.068;18.224;2022-10-16T16:43:46;14.80;1.00
19924;DHT22;10124;53.068;18.224;2022-10-16T16:46:15;15.00;1.00
19924;DHT22;10124;53.068;18.224;2022-10-16T16:48:43;14.80;1.00
19924;DHT22;10124;53.068;18.224;2022-10-16T16:51:14;15.00;1.00
19924;DHT22;10124;53.068;18.224;2022-10-16T16:53:43;15.50;1.00
19924;DHT22;10124;53.068;18.224;2022-10-16T16:56:12;14.90;1.00
19924;DHT22;10124;53.068;18.224;2022-10-16T16:58:40;14.90;1.00
19924;DHT22;10124;53.068;18.224;2022-10-16T17:01:09;16.60;1.00
19924;DHT22;10124;53.068;18.224;2022-10-16T17:03:55;14.80;1.00
19924;DHT22;10124;53.068;18.224;2022-10-16T17:06:26;15.00;1.00
19924;DHT22;10124;53.068;18.224;2022-10-16T17:08:54;14.90;1.00
19924;DHT22;10124;53.068;18.224;2022-10-16T17:11:24;14.80;1.00
19924;DHT22;10124;53.068;18.224;2022-10-16T17:13:54;15.50;1.00
19924;DHT22;10124;53.068;18.224;2022-10-16T17:16:27;15.20;1.00
19924;DHT22;10124;53.068;18.224;2022-10-16T17:18:59;15.20;1.00
19924;DHT22;10124;53.068;18.224;2022-10-16T17:21:29;15.20;99.90
19924;DHT22;10124;53.068;18.224;2022-10-16T17:24:00;16.80;99.90
19924;DHT22;10124;53.068;18.224;2022-10-16T17:26:29;15.30;1.00
19924;DHT22;10124;53.068;18.224;2022-10-16T17:29:00;15.30;1.00